createdAt,value
2018-04-01T00:01:57.616Z,96.87
2018-04-01T00:04:24.623Z,96.69
2018-04-01T00:06:51.628Z,96.97
2018-04-01T00:09:18.582Z,96.91
2018-04-01T00:11:45.600Z,96.82
2018-04-01T00:14:12.568Z,96.96
2018-04-01T00:16:39.520Z,97.28
2018-04-01T00:19:06.463Z,96.88
2018-04-01T00:21:34.114Z,96.56
2018-04-01T00:24:01.106Z,96.50
2018-04-01T00:26:28.126Z,96.41
2018-04-01T00:28:55.077Z,96.07
2018-04-01T00:31:22.082Z,96.29
2018-04-01T00:33:49.040Z,96.51
2018-04-01T00:36:16.002Z,96.05
2018-04-01T00:38:43.430Z,96.09
2018-04-01T00:41:10.390Z,96.60
2018-04-01T00:43:37.347Z,96.64
2018-04-01T00:46:04.322Z,96.97
2018-04-01T00:48:31.340Z,97.13
2018-04-01T00:50:58.373Z,97.14
2018-04-01T00:53:25.338Z,97.09
2018-04-01T00:55:52.332Z,97.07
2018-04-01T00:58:19.312Z,97.01
2018-04-01T01:00:46.272Z,97.21
2018-04-01T01:03:13.272Z,97.16
2018-04-01T01:05:40.344Z,97.19
2018-04-01T01:08:07.391Z,97.45
2018-04-01T01:10:34.359Z,97.53
2018-04-01T01:13:01.364Z,97.58
2018-04-01T01:15:28.335Z,97.89
2018-04-01T01:17:55.316Z,98.31
2018-04-01T01:20:22.364Z,98.50
2018-04-01T01:22:49.308Z,98.50
2018-04-01T01:25:16.250Z,98.79
2018-04-01T01:27:43.190Z,98.98
2018-04-01T01:30:10.146Z,98.83
2018-04-01T01:32:37.161Z,99.29
2018-04-01T01:35:04.124Z,99.23
2018-04-01T01:37:31.124Z,99.30
2018-04-01T01:39:58.134Z,99.29
2018-04-01T01:42:25.071Z,99.25
2018-04-01T01:44:53.161Z,99.29
2018-04-01T01:47:20.185Z,99.35
2018-04-01T01:49:47.244Z,99.08
2018-04-01T01:52:14.235Z,98.65
2018-04-01T01:54:41.205Z,98.87
2018-04-01T01:57:08.196Z,98.57
2018-04-01T01:59:35.157Z,98.38
2018-04-01T02:02:02.163Z,98.48
2018-04-01T02:04:29.194Z,98.15
2018-04-01T02:06:56.158Z,97.98
2018-04-01T02:09:23.104Z,97.82
2018-04-01T02:11:50.134Z,97.73
2018-04-01T02:14:17.124Z,97.72
2018-04-01T02:16:44.083Z,97.93
2018-04-01T02:19:11.111Z,97.88
2018-04-01T02:21:38.094Z,97.79
2018-04-01T02:24:05.068Z,97.35
2018-04-01T02:26:32.345Z,97.23
2018-04-01T02:28:59.366Z,97.27
2018-04-01T02:31:26.436Z,97.16
2018-04-01T02:33:53.435Z,96.91
2018-04-01T02:36:20.486Z,97.27
2018-04-01T02:38:47.508Z,97.04
2018-04-01T02:41:14.572Z,97.42
2018-04-01T02:43:41.590Z,97.49
2018-04-01T02:46:08.600Z,97.46
2018-04-01T02:48:35.591Z,97.57
2018-04-01T02:51:02.566Z,97.80
2018-04-01T02:53:29.558Z,97.62
2018-04-01T02:55:56.553Z,97.30
2018-04-01T02:58:25.593Z,97.49
2018-04-01T03:00:52.648Z,97.37
2018-04-01T03:03:19.712Z,97.26
2018-04-01T03:05:46.669Z,97.43
2018-04-01T03:08:13.671Z,97.39
2018-04-01T03:10:40.662Z,97.01
2018-04-01T03:13:07.635Z,97.36
2018-04-01T03:15:34.622Z,97.07
2018-04-01T03:18:01.710Z,97.12
2018-04-01T03:20:28.777Z,97.14
2018-04-01T03:22:55.756Z,97.37
2018-04-01T03:25:22.724Z,97.33
2018-04-01T03:27:49.775Z,97.24
2018-04-01T03:30:16.826Z,97.02
2018-04-01T03:32:43.809Z,97.39
2018-04-01T03:35:10.835Z,97.32
2018-04-01T03:37:37.853Z,97.39
2018-04-01T03:40:04.853Z,97.59
2018-04-01T03:42:31.962Z,97.65
2018-04-01T03:44:58.918Z,97.38
2018-04-01T03:47:25.927Z,97.21
2018-04-01T03:49:52.987Z,97.23
2018-04-01T03:52:20.678Z,97.30
2018-04-01T03:54:47.634Z,97.05
2018-04-01T03:57:14.595Z,97.09
2018-04-01T03:59:41.613Z,96.80
2018-04-01T04:02:08.591Z,96.81
2018-04-01T04:04:35.621Z,96.82
2018-04-01T04:07:02.648Z,96.80
2018-04-01T04:09:29.673Z,96.84
2018-04-01T04:11:56.642Z,96.88
2018-04-01T04:14:23.666Z,96.89
2018-04-01T04:16:50.760Z,96.70
2018-04-01T04:19:17.790Z,96.74
2018-04-01T04:21:44.826Z,96.47
2018-04-01T04:24:11.789Z,96.15
2018-04-01T04:26:38.770Z,96.39
2018-04-01T04:29:05.770Z,96.65
2018-04-01T04:31:32.739Z,96.51
2018-04-01T04:33:59.768Z,96.34
2018-04-01T04:36:26.912Z,96.50
2018-04-01T04:38:53.978Z,96.70
2018-04-01T04:41:21.018Z,96.60
2018-04-01T04:43:48.098Z,96.33
2018-04-01T04:46:15.122Z,96.58
2018-04-01T04:48:42.244Z,96.67
2018-04-01T04:51:09.316Z,96.59
2018-04-01T04:53:36.421Z,96.46
2018-04-01T04:56:03.406Z,96.43
2018-04-01T04:58:30.600Z,96.69
2018-04-01T05:00:57.621Z,96.46
2018-04-01T05:03:24.586Z,96.52
2018-04-01T05:05:51.621Z,96.66
2018-04-01T05:08:18.639Z,96.97
2018-04-01T05:10:45.879Z,97.09
2018-04-01T05:13:12.858Z,97.07
2018-04-01T05:15:39.821Z,96.95
2018-04-01T05:18:06.832Z,96.64
2018-04-01T05:20:33.903Z,96.83
2018-04-01T05:23:01.534Z,96.75
2018-04-01T05:25:28.504Z,96.55
2018-04-01T05:27:55.543Z,96.44
2018-04-01T05:30:22.574Z,96.61
2018-04-01T05:32:49.590Z,96.64
2018-04-01T05:35:16.569Z,96.64
2018-04-01T05:37:43.892Z,96.62
2018-04-01T05:40:11.209Z,96.49
2018-04-01T05:42:40.014Z,96.46
2018-04-01T05:45:07.007Z,96.33
2018-04-01T05:47:34.325Z,96.25
2018-04-01T05:50:01.426Z,96.48
2018-04-01T05:52:28.433Z,96.34
2018-04-01T05:54:55.530Z,96.33
2018-04-01T05:57:22.529Z,96.32
2018-04-01T05:59:51.860Z,96.18
2018-04-01T06:02:18.911Z,96.44
2018-04-01T06:04:45.975Z,96.30
2018-04-01T06:07:14.087Z,96.39
2018-04-01T06:09:41.107Z,96.03
2018-04-01T06:12:08.146Z,95.82
2018-04-01T06:14:35.169Z,95.87
2018-04-01T06:17:02.138Z,95.80
2018-04-01T06:19:29.279Z,96.08
2018-04-01T06:21:56.318Z,95.85
2018-04-01T06:24:23.925Z,95.94
2018-04-01T06:26:50.952Z,95.75
2018-04-01T06:29:18.846Z,95.33
2018-04-01T06:31:46.735Z,95.18
2018-04-01T06:34:13.683Z,95.09
2018-04-01T06:36:41.638Z,95.16
2018-04-01T06:39:08.641Z,95.02
2018-04-01T06:41:36.610Z,94.95
2018-04-01T06:44:05.123Z,94.76
2018-04-01T06:46:32.119Z,94.61
2018-04-01T06:48:59.102Z,94.58
2018-04-01T06:51:26.078Z,94.50
2018-04-01T06:53:53.080Z,94.66
2018-04-01T06:56:20.151Z,94.59
2018-04-01T06:58:50.409Z,94.45
2018-04-01T07:01:17.387Z,94.14
2018-04-01T07:03:44.485Z,94.13
2018-04-01T07:06:11.515Z,93.95
2018-04-01T07:08:41.457Z,94.30
2018-04-01T07:11:08.504Z,93.75
2018-04-01T07:13:35.679Z,93.73
2018-04-01T07:16:02.658Z,93.60
2018-04-01T07:18:29.764Z,93.68
2018-04-01T07:20:56.879Z,94.16
2018-04-01T07:23:25.139Z,93.73
2018-04-01T07:25:53.366Z,93.72
2018-04-01T07:28:20.388Z,93.72
2018-04-01T07:30:47.437Z,93.52
2018-04-01T07:33:14.509Z,93.50
2018-04-01T07:35:41.444Z,93.35
2018-04-01T07:38:08.558Z,93.25
2018-04-01T07:40:41.902Z,93.11
2018-04-01T07:43:08.912Z,93.22
2018-04-01T07:45:35.914Z,92.93
2018-04-01T07:48:02.896Z,92.92
2018-04-01T07:50:30.754Z,93.03
2018-04-01T07:52:59.380Z,92.71
2018-04-01T07:55:26.830Z,92.85
2018-04-01T07:57:53.865Z,92.66
2018-04-01T08:00:20.842Z,92.53
2018-04-01T08:02:50.427Z,92.64
2018-04-01T08:05:17.525Z,92.08
2018-04-01T08:07:46.067Z,91.76
2018-04-01T08:10:20.861Z,92.08
2018-04-01T08:12:51.929Z,92.16
2018-04-01T08:15:18.976Z,92.16
2018-04-01T08:17:46.650Z,92.23
2018-04-01T08:20:13.680Z,91.96
2018-04-01T08:22:40.648Z,91.77
2018-04-01T08:25:07.698Z,91.59
2018-04-01T08:27:34.730Z,91.91
2018-04-01T08:30:01.757Z,91.71
2018-04-01T08:32:28.720Z,92.17
2018-04-01T08:34:55.760Z,91.50
2018-04-01T08:37:23.002Z,91.24
2018-04-01T08:39:50.093Z,90.92
2018-04-01T08:42:17.145Z,90.98
2018-04-01T08:44:44.175Z,90.66
2018-04-01T08:47:11.368Z,90.36
2018-04-01T08:49:38.342Z,90.30
2018-04-01T08:52:05.355Z,90.58
2018-04-01T08:54:32.417Z,90.52
2018-04-01T08:56:59.440Z,90.52
2018-04-01T08:59:26.529Z,90.43
2018-04-01T09:01:53.479Z,90.17
2018-04-01T09:04:20.422Z,90.33
2018-04-01T09:06:47.425Z,90.33
2018-04-01T09:09:14.394Z,89.63
2018-04-01T09:11:41.385Z,89.58
2018-04-01T09:14:08.498Z,89.87
2018-04-01T09:16:35.476Z,89.93
2018-04-01T09:19:02.623Z,89.28
2018-04-01T09:21:29.700Z,89.39
2018-04-01T09:23:56.861Z,89.74
2018-04-01T09:26:23.934Z,88.76
2018-04-01T09:28:51.007Z,89.35
2018-04-01T09:31:18.024Z,89.08
2018-04-01T09:33:45.042Z,88.96
2018-04-01T09:36:12.198Z,88.56
2018-04-01T09:38:39.214Z,88.12
2018-04-01T09:41:06.289Z,87.77
2018-04-01T09:43:33.248Z,87.32
2018-04-01T09:46:00.340Z,86.90
2018-04-01T09:48:27.383Z,87.05
2018-04-01T09:50:54.470Z,87.17
2018-04-01T09:53:21.478Z,87.56
2018-04-01T09:55:48.516Z,87.71
2018-04-01T09:58:15.544Z,86.33
2018-04-01T10:01:00.866Z,86.10
2018-04-01T10:03:28.404Z,85.66
2018-04-01T10:05:55.914Z,86.09
2018-04-01T10:08:23.456Z,85.97
2018-04-01T10:10:51.030Z,85.83
2018-04-01T10:13:18.656Z,86.12
2018-04-01T10:15:46.175Z,86.98
2018-04-01T10:18:13.698Z,87.11
2018-04-01T10:20:41.226Z,86.96
2018-04-01T10:23:08.754Z,87.13
2018-04-01T10:25:36.274Z,86.43
2018-04-01T10:28:03.815Z,86.39
2018-04-01T10:30:31.426Z,86.69
2018-04-01T10:32:59.102Z,86.36
2018-04-01T10:35:26.736Z,86.50
2018-04-01T10:37:54.296Z,86.62
2018-04-01T10:40:21.856Z,86.76
2018-04-01T10:42:49.367Z,86.54
2018-04-01T10:45:16.885Z,86.38
2018-04-01T10:47:44.501Z,86.44
2018-04-01T10:50:12.065Z,87.00
2018-04-01T10:52:39.973Z,85.85
2018-04-01T10:55:07.060Z,85.35
2018-04-01T10:57:34.201Z,85.28
2018-04-01T11:00:01.196Z,85.61
2018-04-01T11:02:28.173Z,84.29
2018-04-01T11:04:55.212Z,84.54
2018-04-01T11:07:22.278Z,83.29
2018-04-01T11:09:50.218Z,82.80
2018-04-01T11:12:17.229Z,83.92
2018-04-01T11:14:44.205Z,83.63
2018-04-01T11:17:11.149Z,84.58
2018-04-01T11:19:38.201Z,84.78
2018-04-01T11:22:05.258Z,85.14
2018-04-01T11:24:32.321Z,84.44
2018-04-01T11:26:59.358Z,84.76
2018-04-01T11:29:26.386Z,84.25
2018-04-01T11:31:53.361Z,83.62
2018-04-01T11:34:20.452Z,83.63
2018-04-01T11:36:47.434Z,83.38
2018-04-01T11:39:14.558Z,83.21
2018-04-01T11:41:41.522Z,82.88
2018-04-01T11:44:08.517Z,82.27
2018-04-01T11:46:35.526Z,81.98
2018-04-01T11:49:02.557Z,81.96
2018-04-01T11:51:29.516Z,83.43
2018-04-01T11:53:56.537Z,83.57
2018-04-01T11:56:23.536Z,84.07
2018-04-01T11:58:50.538Z,83.44
2018-04-01T12:01:17.519Z,83.86
2018-04-01T12:03:44.519Z,83.00
2018-04-01T12:06:11.499Z,83.36
2018-04-01T12:08:38.533Z,83.62
2018-04-01T12:11:05.492Z,83.63
2018-04-01T12:13:32.524Z,82.97
2018-04-01T12:15:59.517Z,83.14
2018-04-01T12:18:26.543Z,82.99
2018-04-01T12:20:53.609Z,82.96
2018-04-01T12:23:20.658Z,83.06
2018-04-01T12:25:47.654Z,82.20
2018-04-01T12:28:14.665Z,82.34
2018-04-01T12:30:41.681Z,82.02
2018-04-01T12:33:08.712Z,81.61
2018-04-01T12:35:35.736Z,81.17
2018-04-01T12:38:02.711Z,80.65
2018-04-01T12:40:29.698Z,80.66
2018-04-01T12:42:56.707Z,80.51
2018-04-01T12:45:23.727Z,80.17
2018-04-01T12:47:50.698Z,79.08
2018-04-01T12:50:17.697Z,79.26
2018-04-01T12:52:44.668Z,79.69
2018-04-01T12:55:11.613Z,78.96
2018-04-01T12:57:38.588Z,78.93
2018-04-01T13:00:05.597Z,79.52
2018-04-01T13:02:32.578Z,79.39
2018-04-01T13:04:59.592Z,78.82
2018-04-01T13:07:26.636Z,79.37
2018-04-01T13:09:53.606Z,78.94
2018-04-01T13:12:20.555Z,78.95
2018-04-01T13:14:47.508Z,78.75
2018-04-01T13:17:14.467Z,78.47
2018-04-01T13:19:41.481Z,78.69
2018-04-01T13:22:08.494Z,78.74
2018-04-01T13:24:35.492Z,78.27
2018-04-01T13:27:03.342Z,78.10
2018-04-01T13:29:30.373Z,77.87
2018-04-01T13:31:57.374Z,77.66
2018-04-01T13:34:24.375Z,77.62
2018-04-01T13:36:51.350Z,77.56
2018-04-01T13:39:18.324Z,77.56
2018-04-01T13:41:52.121Z,77.57
2018-04-01T13:44:19.841Z,76.94
2018-04-01T13:46:46.814Z,76.75
2018-04-01T13:49:13.816Z,76.95
2018-04-01T13:51:41.106Z,76.76
2018-04-01T13:54:08.186Z,76.58
2018-04-01T13:56:35.405Z,77.11
2018-04-01T13:59:02.399Z,77.00
2018-04-01T14:01:29.397Z,76.38
2018-04-01T14:03:56.352Z,76.03
2018-04-01T14:06:23.326Z,75.59
2018-04-01T14:08:50.311Z,75.79
2018-04-01T14:11:17.305Z,75.61
2018-04-01T14:13:44.328Z,75.68
2018-04-01T14:16:11.371Z,75.91
2018-04-01T14:18:38.359Z,75.73
2018-04-01T14:21:05.327Z,76.04
2018-04-01T14:23:32.314Z,75.92
2018-04-01T14:25:59.311Z,76.12
2018-04-01T14:28:26.311Z,76.06
2018-04-01T14:30:53.355Z,74.91
2018-04-01T14:33:20.372Z,75.13
2018-04-01T14:35:47.425Z,75.80
2018-04-01T14:38:14.392Z,76.50
2018-04-01T14:40:41.362Z,76.38
2018-04-01T14:43:08.326Z,76.55
2018-04-01T14:45:35.355Z,76.55
2018-04-01T14:48:02.339Z,76.08
2018-04-01T14:50:29.358Z,75.51
2018-04-01T14:52:56.335Z,75.74
2018-04-01T14:55:23.326Z,76.12
2018-04-01T14:57:50.294Z,75.84
2018-04-01T15:00:17.254Z,76.68
2018-04-01T15:02:44.307Z,76.41
2018-04-01T15:05:11.299Z,76.80
2018-04-01T15:07:38.288Z,76.73
2018-04-01T15:10:05.289Z,76.18
2018-04-01T15:12:32.238Z,76.43
2018-04-01T15:14:59.306Z,77.25
2018-04-01T15:17:26.278Z,76.33
2018-04-01T15:19:53.314Z,76.71
2018-04-01T15:22:20.285Z,76.52
2018-04-01T15:24:47.302Z,77.16
2018-04-01T15:27:14.321Z,76.90
2018-04-01T15:29:41.279Z,77.12
2018-04-01T15:32:08.257Z,77.07
2018-04-01T15:34:35.277Z,75.55
2018-04-01T15:37:02.278Z,75.53
2018-04-01T15:39:29.300Z,76.37
2018-04-01T15:41:56.308Z,75.45
2018-04-01T15:44:23.286Z,74.77
2018-04-01T15:46:50.312Z,74.09
2018-04-01T15:49:17.344Z,74.75
2018-04-01T15:51:44.439Z,75.13
2018-04-01T15:54:11.454Z,74.41
2018-04-01T15:56:38.429Z,74.39
2018-04-01T15:59:05.435Z,74.49
2018-04-01T16:01:32.496Z,74.24
2018-04-01T16:03:59.494Z,74.50
2018-04-01T16:06:26.507Z,74.51
2018-04-01T16:08:53.473Z,74.36
2018-04-01T16:11:20.534Z,74.48
2018-04-01T16:13:47.628Z,74.10
2018-04-01T16:16:14.574Z,73.65
2018-04-01T16:18:41.589Z,72.96
2018-04-01T16:21:08.627Z,73.58
2018-04-01T16:23:35.647Z,73.04
2018-04-01T16:26:02.632Z,72.34
2018-04-01T16:28:29.636Z,72.44
2018-04-01T16:30:56.612Z,73.00
2018-04-01T16:33:23.701Z,72.49
2018-04-01T16:35:50.753Z,73.09
2018-04-01T16:38:18.486Z,72.23
2018-04-01T16:40:45.498Z,71.90
2018-04-01T16:43:12.542Z,71.91
2018-04-01T16:45:39.548Z,72.15
2018-04-01T16:48:06.524Z,72.03
2018-04-01T16:50:33.618Z,72.54
2018-04-01T16:53:00.621Z,72.05
2018-04-01T16:55:27.649Z,72.57
2018-04-01T16:57:54.694Z,72.33
2018-04-01T17:00:21.743Z,72.84
2018-04-01T17:02:48.804Z,73.12
2018-04-01T17:05:15.793Z,73.49
2018-04-01T17:07:42.770Z,73.31
2018-04-01T17:10:09.756Z,73.62
2018-04-01T17:12:36.740Z,73.86
2018-04-01T17:15:03.706Z,74.06
2018-04-01T17:17:30.782Z,74.50
2018-04-01T17:19:57.836Z,74.41
2018-04-01T17:22:24.905Z,74.56
2018-04-01T17:24:51.873Z,74.86
2018-04-01T17:27:18.861Z,75.18
2018-04-01T17:29:45.833Z,75.06
2018-04-01T17:32:12.896Z,75.36
2018-04-01T17:34:39.889Z,75.69
2018-04-01T17:37:06.959Z,75.87
2018-04-01T17:39:33.936Z,75.81
2018-04-01T17:42:00.944Z,76.04
2018-04-01T17:44:27.930Z,76.24
2018-04-01T17:46:54.930Z,76.68
2018-04-01T17:49:21.936Z,76.87
2018-04-01T17:51:48.952Z,77.06
2018-04-01T17:54:16.005Z,77.04
2018-04-01T17:56:43.058Z,77.17
2018-04-01T17:59:10.043Z,77.35
2018-04-01T18:01:37.025Z,77.52
2018-04-01T18:04:04.006Z,78.15
2018-04-01T18:06:31.038Z,78.37
2018-04-01T18:08:58.044Z,78.42
2018-04-01T18:11:25.057Z,78.79
2018-04-01T18:13:52.107Z,79.13
2018-04-01T18:16:19.138Z,79.18
2018-04-01T18:18:47.340Z,79.21
2018-04-01T18:21:14.554Z,79.26
2018-04-01T18:23:41.543Z,79.19
2018-04-01T18:26:08.528Z,79.52
2018-04-01T18:28:35.572Z,79.80
2018-04-01T18:31:03.620Z,80.05
2018-04-01T18:33:31.376Z,80.18
2018-04-01T18:35:58.359Z,80.33
2018-04-01T18:38:25.404Z,80.36
2018-04-01T18:40:52.474Z,80.70
2018-04-01T18:43:19.498Z,80.60
2018-04-01T18:45:46.508Z,80.61
2018-04-01T18:48:13.480Z,80.74
2018-04-01T18:50:40.495Z,80.83
2018-04-01T18:53:07.446Z,80.88
2018-04-01T18:55:34.450Z,80.95
2018-04-01T18:58:01.475Z,80.97
2018-04-01T19:00:28.496Z,80.88
2018-04-01T19:02:55.455Z,81.07
2018-04-01T19:05:22.442Z,81.15
2018-04-01T19:07:49.404Z,81.25
2018-04-01T19:10:16.383Z,80.81
2018-04-01T19:12:43.413Z,81.21
2018-04-01T19:15:10.393Z,81.22
2018-04-01T19:17:37.948Z,81.21
2018-04-01T19:20:05.475Z,81.37
2018-04-01T19:22:32.987Z,81.07
2018-04-01T19:25:00.508Z,81.07
2018-04-01T19:27:28.040Z,81.40
2018-04-01T19:29:55.649Z,81.19
2018-04-01T19:32:23.237Z,81.28
2018-04-01T19:34:50.792Z,81.17
2018-04-01T19:37:18.491Z,81.13
2018-04-01T19:39:46.038Z,81.05
2018-04-01T19:42:13.661Z,80.99
2018-04-01T19:44:41.229Z,81.20
2018-04-01T19:47:08.784Z,81.29
2018-04-01T19:49:36.279Z,81.52
2018-04-01T19:52:03.847Z,81.82
2018-04-01T19:54:31.410Z,81.60
2018-04-01T19:56:58.902Z,81.32
2018-04-01T19:59:26.530Z,81.10
2018-04-01T20:01:54.058Z,80.82
2018-04-01T20:04:21.620Z,80.46
2018-04-01T20:06:49.140Z,80.02
2018-04-01T20:09:16.673Z,80.44
2018-04-01T20:11:44.172Z,79.85
2018-04-01T20:14:11.777Z,79.58
2018-04-01T20:16:39.258Z,79.56
2018-04-01T20:19:06.892Z,79.66
2018-04-01T20:21:34.478Z,79.66
2018-04-01T20:24:02.039Z,79.61
2018-04-01T20:26:29.533Z,79.60
2018-04-01T20:28:57.327Z,79.42
2018-04-01T20:31:24.867Z,79.37
2018-04-01T20:33:52.390Z,79.40
2018-04-01T20:36:19.929Z,79.17
2018-04-01T20:38:47.474Z,79.44
2018-04-01T20:41:14.974Z,79.53
2018-04-01T20:43:42.510Z,79.41
2018-04-01T20:46:10.056Z,79.25
2018-04-01T20:48:37.615Z,79.41
2018-04-01T20:51:05.181Z,79.51
2018-04-01T20:53:32.788Z,79.85
2018-04-01T20:56:00.294Z,79.17
2018-04-01T20:58:27.799Z,79.68
2018-04-01T21:00:55.378Z,79.25
2018-04-01T21:03:22.970Z,79.24
2018-04-01T21:05:51.363Z,79.26
2018-04-01T21:08:18.867Z,79.24
2018-04-01T21:10:46.420Z,79.47
2018-04-01T21:13:13.930Z,79.43
2018-04-01T21:15:41.483Z,79.59
2018-04-01T21:18:09.061Z,79.75
2018-04-01T21:20:36.603Z,79.94
2018-04-01T21:23:04.151Z,80.09
2018-04-01T21:25:31.677Z,79.83
2018-04-01T21:27:59.220Z,79.83
2018-04-01T21:30:26.812Z,80.01
2018-04-01T21:32:54.465Z,80.07
2018-04-01T21:35:22.570Z,80.51
2018-04-01T21:37:50.093Z,80.48
2018-04-01T21:40:17.671Z,80.30
2018-04-01T21:42:45.240Z,80.43
2018-04-01T21:45:12.775Z,80.47
2018-04-01T21:47:40.299Z,80.41
2018-04-01T21:50:07.871Z,80.56
2018-04-01T21:52:35.374Z,80.59
2018-04-01T21:55:02.911Z,81.07
2018-04-01T21:57:30.405Z,81.08
2018-04-01T21:59:57.949Z,81.04
2018-04-01T22:02:25.500Z,81.02
2018-04-01T22:04:53.021Z,81.11
2018-04-01T22:07:20.553Z,81.27
2018-04-01T22:09:48.108Z,81.44
2018-04-01T22:12:15.645Z,81.55
2018-04-01T22:14:43.208Z,81.64
2018-04-01T22:17:10.752Z,81.67
2018-04-01T22:19:38.302Z,81.93
2018-04-01T22:22:05.831Z,82.18
2018-04-01T22:24:33.352Z,82.27
2018-04-01T22:27:00.884Z,82.39
2018-04-01T22:29:28.434Z,82.63
2018-04-01T22:31:55.985Z,83.02
2018-04-01T22:34:23.533Z,83.22
2018-04-01T22:36:51.029Z,83.24
2018-04-01T22:39:18.623Z,83.24
2018-04-01T22:41:46.115Z,83.32
2018-04-01T22:44:13.630Z,83.24
2018-04-01T22:46:41.169Z,83.41
2018-04-01T22:49:08.678Z,83.72
2018-04-01T22:51:36.252Z,83.74
2018-04-01T22:54:03.866Z,83.66
2018-04-01T22:56:31.404Z,84.11
2018-04-01T22:58:58.954Z,84.20
2018-04-01T23:01:26.476Z,84.64
2018-04-01T23:03:54.021Z,84.88
2018-04-01T23:06:21.511Z,85.48
2018-04-01T23:08:49.013Z,85.96
2018-04-01T23:11:16.556Z,86.37
